North Chester, Massachusetts
Current Conditions -  °F | °C
As of 9:53 AM on Monday 22 Dec 2014 (Local Time) from KBAF Reporting Station
Overcast Overcast  
Wind Chill: 30°   Ceiling: 1400
Heat Index: 35°   Visibility: 10mi
Dew Point: 31°   Wind: 6mph
Humidity: 85%   Direction: 360°N
Pressure: 30.36"   Gusts: NA
Location:  42.3047°N, 72.879°W
Report Text: KBAF 221453Z 36005KT 10SM OVC014 02/M01 A3036 RMK AO2 SLP287 T00171006 53002
Loading
Personal Weather Stations






























Interactive Weather Map New forecast layout! Learn more

10-Day Weather Forecast

Advertisements
Track Severe Weather on mobile